| time (UTC) | temp C | wind direction | speed KPH | gust KPH | rain 1hr cm | rain 24hr cm | rain mn cm | humidity % | barometer mb |
| 20260506225005 | 14 | 357 | 0.0 | 3.2 | 0.25 | 0.00 | 0.23 | 97 | 1011.3 |
| 20260506224503 | 13 | 169 | 1.6 | 3.2 | 0.25 | 0.00 | 0.20 | 97 | 1011.7 |
| 20260506224003 | 13 | 7 | 0.0 | 0.0 | 0.23 | 0.00 | 0.18 | 97 | 1011.2 |
| 20260506223505 | 13 | 40 | 0.0 | 0.0 | 0.18 | 0.00 | 0.13 | 97 | 1011.4 |
| 20260506223003 | 13 | 348 | 0.0 | 3.2 | 0.08 | 0.00 | 0.03 | 97 | 1011.5 |
| 20260506222503 | 13 | 39 | 0.0 | 1.6 | 0.08 | 0.00 | 0.00 | 97 | 1011.0 |
| 20260506222003 | 13 | 61 | 0.0 | 1.6 | 0.15 | 0.00 | 0.00 | 97 | 1010.7 |
| 20260506221504 | 13 | 61 | 0.0 | 0.0 | 0.20 | 0.00 | 0.00 | 97 | 1011.0 |
| 20260506221002 | 13 | 62 | 0.0 | 0.0 | 0.23 | 0.00 | 0.00 | 96 | 1010.6 |
| 20260506220504 | 13 | 62 | 0.0 | 0.0 | 0.25 | 0.00 | 0.00 | 96 | 1010.6 |
| 20260506220004 | 13 | 68 | 0.0 | 0.0 | 0.28 | 0.00 | 1.73 | 96 | 1010.6 |
| 20260506215504 | 13 | 47 | 0.0 | 1.6 | 0.28 | 0.00 | 1.70 | 96 | 1010.3 |
| 20260506215004 | 13 | 27 | 0.0 | 1.6 | 0.28 | 0.00 | 1.70 | 96 | 1010.3 |
| 20260506214503 | 13 | 37 | 0.0 | 0.0 | 0.28 | 0.00 | 1.68 | 96 | 1010.2 |
| 20260506214003 | 13 | 43 | 0.0 | 0.0 | 0.28 | 0.00 | 1.68 | 96 | 1010.2 |
| 20260506213504 | 13 | 39 | 0.0 | 3.2 | 0.30 | 0.00 | 1.68 | 96 | 1010.0 |
| 20260506213004 | 13 | 32 | 3.2 | 4.8 | 0.28 | 0.00 | 1.65 | 96 | 1010.0 |
| 20260506212502 | 13 | 41 | 0.0 | 1.6 | 0.25 | 0.00 | 1.63 | 96 | 1010.4 |
| 20260506212003 | 13 | 91 | 1.6 | 3.2 | 0.18 | 0.00 | 1.55 | 96 | 1010.5 |
| 20260506211504 | 13 | 39 | 0.0 | 0.0 | 0.20 | 0.00 | 1.52 | 96 | 1010.7 |
| 20260506211002 | 13 | 39 | 0.0 | 0.0 | 0.20 | 0.00 | 1.50 | 96 | 1010.7 |
| 20260506210503 | 13 | 27 | 1.6 | 1.6 | 0.18 | 0.00 | 1.47 | 96 | 1010.5 |
| 20260506210002 | 13 | 65 | 0.0 | 0.0 | 0.20 | 0.00 | 1.45 | 96 | 1010.9 |
| 20260506205502 | 13 | 65 | 0.0 | 0.0 | 0.20 | 0.00 | 1.42 | 96 | 1010.9 |
| 20260506205002 | 13 | 65 | 0.0 | 0.0 | 0.23 | 0.00 | 1.40 | 96 | 1011.0 |
| 20260506204503 | 13 | 65 | 0.0 | 0.0 | 0.28 | 0.00 | 1.40 | 96 | 1011.2 |
| 20260506204004 | 13 | 65 | 0.0 | 0.0 | 0.28 | 0.00 | 1.37 | 96 | 1011.0 |
| 20260506203504 | 13 | 65 | 0.0 | 0.0 | 0.30 | 0.00 | 1.37 | 96 | 1010.6 |
| 20260506203002 | 13 | 65 | 0.0 | 1.6 | 0.33 | 0.00 | 1.37 | 96 | 1010.5 |
| 20260506202503 | 13 | 64 | 0.0 | 0.0 | 0.33 | 0.00 | 1.37 | 95 | 1010.7 |
| 20260506202003 | 13 | 49 | 0.0 | 1.6 | 0.30 | 0.00 | 1.35 | 95 | 1010.3 |
| 20260506201503 | 13 | 54 | 0.0 | 1.6 | 0.30 | 0.00 | 1.32 | 95 | 1010.4 |
| 20260506201004 | 13 | 41 | 0.0 | 1.6 | 0.28 | 0.00 | 1.30 | 95 | 1010.4 |
| 20260506200504 | 13 | 20 | 0.0 | 0.0 | 0.25 | 0.00 | 1.27 | 95 | 1010.8 |
| 20260506200003 | 13 | 19 | 0.0 | 1.6 | 0.28 | 0.00 | 1.24 | 95 | 1011.0 |
| 20260506195504 | 14 | 4 | 0.0 | 0.0 | 0.25 | 0.00 | 1.19 | 95 | 1010.8 |
| 20260506195003 | 14 | 334 | 0.0 | 1.6 | 0.28 | 0.00 | 1.14 | 95 | 1011.0 |
| 20260506194502 | 14 | 356 | 3.2 | 4.8 | 0.33 | 0.00 | 1.09 | 95 | 1010.9 |
| 20260506194002 | 14 | 2 | 0.0 | 3.2 | 0.41 | 0.00 | 1.07 | 95 | 1011.0 |
| 20260506193503 | 14 | 359 | 1.6 | 1.6 | 0.48 | 0.00 | 1.07 | 95 | 1010.7 |
| 20260506193002 | 14 | 20 | 0.0 | 0.0 | 0.51 | 0.00 | 1.04 | 94 | 1010.3 |
| 20260506192503 | 14 | 6 | 0.0 | 1.6 | 0.56 | 0.00 | 1.04 | 94 | 1010.5 |
| 20260506192004 | 14 | 21 | 0.0 | 1.6 | 0.58 | 0.00 | 1.02 | 94 | 1010.5 |
| 20260506191504 | 14 | 12 | 0.0 | 1.6 | 0.69 | 0.00 | 1.02 | 94 | 1010.5 |
| 20260506191003 | 14 | 39 | 0.0 | 0.0 | 0.74 | 0.00 | 1.02 | 94 | 1010.5 |
| 20260506190504 | 14 | 47 | 0.0 | 0.0 | 0.79 | 0.00 | 0.99 | 93 | 1010.6 |
| 20260506190003 | 14 | 50 | 0.0 | 0.0 | 0.79 | 0.00 | 0.97 | 93 | 1010.6 |
| 20260506185504 | 14 | 50 | 0.0 | 0.0 | 0.74 | 0.00 | 0.91 | 93 | 1010.5 |
| 20260506185004 | 14 | 49 | 0.0 | 0.0 | 0.66 | 0.00 | 0.84 | 92 | 1010.4 |
| 20260506184503 | 14 | 52 | 0.0 | 0.0 | 0.58 | 0.00 | 0.74 | 92 | 1010.5 |
| 20260506184002 | 15 | 53 | 0.0 | 0.0 | 0.51 | 0.00 | 0.64 | 92 | 1010.7 |
| 20260506183504 | 15 | 59 | 0.0 | 1.6 | 0.46 | 0.00 | 0.58 | 91 | 1010.6 |
| 20260506183005 | 15 | 83 | 0.0 | 1.6 | 0.38 | 0.00 | 0.51 | 91 | 1010.6 |
| 20260506182503 | 15 | 10 | 0.0 | 0.0 | 0.33 | 0.00 | 0.46 | 90 | 1010.3 |
| 20260506182005 | 15 | 10 | 0.0 | 0.0 | 0.25 | 0.00 | 0.38 | 89 | 1010.3 |
| 20260506181504 | 15 | 16 | 0.0 | 0.0 | 0.15 | 0.00 | 0.28 | 87 | 1010.0 |
| 20260506181004 | 15 | 95 | 0.0 | 1.6 | 0.10 | 0.00 | 0.23 | 86 | 1009.8 |
| 20260506180502 | 15 | 114 | 0.0 | 1.6 | 0.08 | 0.00 | 0.18 | 85 | 1009.7 |
| 20260506180004 | 15 | 15 | 1.6 | 8.0 | 0.10 | 0.00 | 0.18 | 86 | 1009.7 |
| 20260506175503 | 16 | 174 | 3.2 | 3.2 | 0.13 | 0.00 | 0.18 | 85 | 1009.9 |
| 20260506175004 | 16 | 137 | 3.2 | 4.8 | 0.13 | 0.00 | 0.15 | 85 | 1009.7 |
| 20260506174503 | 16 | 140 | 1.6 | 3.2 | 0.13 | 0.00 | 0.13 | 85 | 1009.4 |
| 20260506174004 | 16 | 143 | 1.6 | 3.2 | 0.13 | 0.00 | 0.13 | 85 | 1009.5 |
| 20260506173506 | 16 | 146 | 1.6 | 3.2 | 0.13 | 0.00 | 0.13 | 87 | 1009.3 |
| 20260506173002 | 16 | 128 | 1.6 | 1.6 | 0.13 | 0.00 | 0.13 | 88 | 1008.9 |
| 20260506172503 | 16 | 118 | 0.0 | 1.6 | 0.13 | 0.00 | 0.13 | 88 | 1008.6 |
| 20260506172004 | 16 | 117 | 0.0 | 0.0 | 0.13 | 0.00 | 0.13 | 87 | 1008.5 |
| 20260506171504 | 16 | 117 | 0.0 | 0.0 | 0.13 | 0.00 | 0.13 | 85 | 1008.5 |
| 20260506171003 | 16 | 119 | 0.0 | 0.0 | 0.13 | 0.00 | 0.13 | 82 | 1008.9 |
| 20260506170503 | 17 | 132 | 3.2 | 4.8 | 0.10 | 0.00 | 0.10 | 77 | 1008.9 |
| 20260506170005 | 17 | 161 | 4.8 | 11.3 | 0.08 | 0.00 | 0.08 | 75 | 1008.9 |
| 20260506165503 | 18 | 173 | 6.4 | 11.3 | 0.05 | 0.00 | 0.05 | 70 | 1009.0 |
| 20260506165004 | 20 | 148 | 8.0 | 14.5 | 0.00 | 0.00 | 0.00 | 62 | 1009.2 |
| 20260506164503 | 22 | 185 | 9.7 | 12.9 | 0.00 | 0.00 | 0.00 | 48 | 1008.9 |
| 20260506164003 | 22 | 196 | 3.2 | 4.8 | 0.00 | 0.00 | 0.00 | 43 | 1008.5 |
| 20260506163502 | 22 | 167 | 1.6 | 3.2 | 0.00 | 0.00 | 0.00 | 41 | 1008.6 |
| 20260506163004 | 22 | 15 | 0.0 | 1.6 | 0.00 | 0.00 | 0.00 | 42 | 1008.5 |
| 20260506162503 | 22 | 144 | 0.0 | 1.6 | 0.00 | 0.00 | 0.00 | 42 | 1008.6 |
| 20260506162003 | 22 | 19 | 0.0 | 0.0 | 0.00 | 0.00 | 0.00 | 42 | 1008.5 |
| 20260506161504 | 22 | 322 | 0.0 | 0.0 | 0.00 | 0.00 | 0.00 | 43 | 1008.7 |
| 20260506161002 | 22 | 124 | 0.0 | 0.0 | 0.00 | 0.00 | 0.00 | 42 | 1008.6 |
| 20260506160505 | 22 | 130 | 1.6 | 4.8 | 0.00 | 0.00 | 0.00 | 40 | 1008.6 |
| 20260506160003 | 23 | 234 | 4.8 | 4.8 | 0.00 | 0.00 | 0.00 | 40 | 1008.9 |
| 20260506155503 | 23 | 192 | 4.8 | 8.0 | 0.00 | 0.00 | 0.00 | 40 | 1008.8 |
| 20260506155006 | 23 | 147 | 0.0 | 11.3 | 0.00 | 0.00 | 0.00 | 39 | 1008.7 |
| 20260506154503 | 25 | 201 | 3.2 | 4.8 | 0.00 | 0.00 | 0.00 | 38 | 1008.7 |
| 20260506154003 | 25 | 187 | 3.2 | 3.2 | 0.00 | 0.00 | 0.00 | 37 | 1008.8 |
| 20260506153503 | 25 | 8 | 3.2 | 9.7 | 0.00 | 0.00 | 0.00 | 37 | 1008.6 |
| 20260506153004 | 25 | 342 | 4.8 | 8.0 | 0.00 | 0.00 | 0.00 | 37 | 1008.7 |
| 20260506152505 | 25 | 306 | 3.2 | 4.8 | 0.00 | 0.00 | 0.00 | 37 | 1008.7 |
| 20260506152003 | 25 | 173 | 3.2 | 4.8 | 0.00 | 0.00 | 0.00 | 37 | 1008.8 |
| 20260506151506 | 25 | 35 | 1.6 | 8.0 | 0.00 | 0.00 | 0.00 | 36 | 1008.9 |
| 20260506151004 | 25 | 323 | 1.6 | 3.2 | 0.00 | 0.00 | 0.00 | 37 | 1008.8 |
| 20260506150502 | 25 | 97 | 1.6 | 9.7 | 0.00 | 0.00 | 0.00 | 37 | 1008.9 |
| 20260506150003 | 24 | 294 | 3.2 | 3.2 | 0.00 | 0.00 | 0.00 | 39 | 1009.0 |
| 20260506145503 | 24 | 245 | 6.4 | 12.9 | 0.00 | 0.00 | 0.00 | 38 | 1009.1 |
| 20260506145004 | 25 | 191 | 4.8 | 8.0 | 0.00 | 0.00 | 0.00 | 37 | 1009.1 |
| 20260506144504 | 25 | 18 | 1.6 | 8.0 | 0.00 | 0.00 | 0.00 | 38 | 1009.0 |
| 20260506144005 | 25 | 171 | 1.6 | 11.3 | 0.00 | 0.00 | 0.00 | 39 | 1009.1 |
| 20260506143503 | 25 | 197 | 3.2 | 9.7 | 0.00 | 0.00 | 0.00 | 40 | 1009.1 |
| 20260506143003 | 24 | 327 | 4.8 | 11.3 | 0.00 | 0.00 | 0.00 | 39 | 1009.4 |
| 20260506142502 | 24 | 118 | 0.0 | 8.0 | 0.00 | 0.00 | 0.00 | 40 | 1009.3 |
| 20260506142003 | 23 | 321 | 3.2 | 8.0 | 0.00 | 0.00 | 0.00 | 42 | 1009.4 |
| 20260506141504 | 23 | 293 | 3.2 | 4.8 | 0.00 | 0.00 | 0.00 | 43 | 1009.4 |
| 20260506141005 | 23 | 337 | 4.8 | 9.7 | 0.00 | 0.00 | 0.00 | 42 | 1009.6 |
| 20260506140503 | 23 | 145 | 4.8 | 8.0 | 0.00 | 0.00 | 0.00 | 41 | 1009.6 |
| 20260506140004 | 24 | 299 | 4.8 | 11.3 | 0.00 | 0.00 | 0.00 | 40 | 1009.6 |
| 20260506135504 | 23 | 215 | 6.4 | 12.9 | 0.00 | 0.00 | 0.00 | 41 | 1009.6 |
| 20260506135005 | 23 | 314 | 3.2 | 11.3 | 0.00 | 0.00 | 0.00 | 43 | 1009.6 |
| 20260506134504 | 23 | 286 | 1.6 | 4.8 | 0.00 | 0.00 | 0.00 | 41 | 1009.7 |
| 20260506134003 | 23 | 86 | 4.8 | 12.9 | 0.00 | 0.00 | 0.00 | 42 | 1009.9 |
| 20260506133503 | 23 | 202 | 6.4 | 11.3 | 0.00 | 0.00 | 0.00 | 41 | 1009.8 |
| 20260506133002 | 23 | 178 | 6.4 | 11.3 | 0.00 | 0.00 | 0.00 | 41 | 1009.5 |
| 20260506132502 | 23 | 181 | 4.8 | 8.0 | 0.00 | 0.00 | 0.00 | 43 | 1009.6 |
| 20260506132002 | 24 | 240 | 3.2 | 17.7 | 0.00 | 0.00 | 0.00 | 42 | 1009.7 |
| 20260506131504 | 25 | 334 | 4.8 | 11.3 | 0.00 | 0.00 | 0.00 | 41 | 1009.9 |
| 20260506131004 | 25 | 242 | 8.0 | 12.9 | 0.00 | 0.00 | 0.00 | 41 | 1009.8 |
| 20260506130504 | 24 | 106 | 4.8 | 8.0 | 0.00 | 0.00 | 0.00 | 44 | 1009.7 |
| 20260506130005 | 23 | 283 | 1.6 | 4.8 | 0.00 | 0.00 | 0.00 | 44 | 1009.6 |
| 20260506125504 | 22 | 188 | 8.0 | 12.9 | 0.00 | 0.00 | 0.00 | 45 | 1009.7 |
| 20260506125004 | 22 | 281 | 4.8 | 12.9 | 0.00 | 0.00 | 0.00 | 46 | 1009.8 |
| 20260506124503 | 22 | 194 | 9.7 | 14.5 | 0.00 | 0.00 | 0.00 | 46 | 1010.1 |
| 20260506124004 | 22 | 267 | 8.0 | 14.5 | 0.00 | 0.00 | 0.00 | 45 | 1009.9 |
| 20260506123503 | 22 | 158 | 8.0 | 11.3 | 0.00 | 0.00 | 0.00 | 45 | 1010.1 |
| 20260506123003 | 23 | 214 | 8.0 | 24.1 | 0.00 | 0.00 | 0.00 | 45 | 1009.8 |
| 20260506122504 | 22 | 248 | 8.0 | 11.3 | 0.00 | 0.00 | 0.00 | 46 | 1009.9 |
| 20260506122004 | 22 | 150 | 8.0 | 11.3 | 0.00 | 0.00 | 0.00 | 47 | 1010.0 |
| 20260506121502 | 22 | 185 | 4.8 | 14.5 | 0.00 | 0.00 | 0.00 | 47 | 1009.8 |
| 20260506121005 | 22 | 242 | 6.4 | 17.7 | 0.00 | 0.00 | 0.00 | 46 | 1009.6 |
| 20260506120503 | 22 | 201 | 8.0 | 12.9 | 0.00 | 0.00 | 0.00 | 46 | 1009.6 |
| 20260506120003 | 22 | 270 | 4.8 | 9.7 | 0.00 | 0.00 | 0.00 | 47 | 1009.8 |
| 20260506115503 | 22 | 185 | 3.2 | 12.9 | 0.00 | 0.00 | 0.00 | 47 | 1009.7 |
| 20260506115003 | 22 | 188 | 9.7 | 16.1 | 0.00 | 0.00 | 0.00 | 46 | 1009.7 |
| 20260506114506 | 22 | 180 | 16.1 | 22.5 | 0.00 | 0.00 | 0.00 | 46 | 1009.7 |
| 20260506114003 | 22 | 171 | 4.8 | 16.1 | 0.00 | 0.00 | 0.00 | 47 | 1009.7 |
| 20260506113503 | 22 | 48 | 1.6 | 9.7 | 0.00 | 0.00 | 0.00 | 48 | 1009.9 |
| 20260506113004 | 21 | 195 | 4.8 | 14.5 | 0.00 | 0.00 | 0.00 | 49 | 1009.8 |
| 20260506112503 | 21 | 182 | 6.4 | 16.1 | 0.00 | 0.00 | 0.00 | 49 | 1009.7 |
| 20260506112003 | 21 | 302 | 4.8 | 12.9 | 0.00 | 0.00 | 0.00 | 49 | 1009.9 |
| 20260506111504 | 21 | 184 | 6.4 | 14.5 | 0.00 | 0.00 | 0.00 | 49 | 1009.8 |
| 20260506111003 | 21 | 189 | 11.3 | 14.5 | 0.00 | 0.00 | 0.00 | 49 | 1009.8 |
| 20260506110505 | 21 | 270 | 4.8 | 12.9 | 0.00 | 0.00 | 0.00 | 50 | 1009.8 |
| 20260506110002 | 21 | 124 | 4.8 | 9.7 | 0.00 | 0.00 | 0.00 | 51 | 1009.8 |
| 20260506105502 | 21 | 195 | 8.0 | 14.5 | 0.00 | 0.00 | 0.00 | 51 | 1009.9 |
| 20260506105005 | 21 | 308 | 4.8 | 14.5 | 0.00 | 0.00 | 0.00 | 52 | 1010.0 |
| 20260506104505 | 20 | 196 | 4.8 | 9.7 | 0.00 | 0.00 | 0.00 | 52 | 1009.9 |
| 20260506104003 | 21 | 142 | 11.3 | 20.9 | 0.00 | 0.00 | 0.00 | 51 | 1009.8 |
| 20260506103502 | 21 | 195 | 6.4 | 9.7 | 0.00 | 0.00 | 0.00 | 50 | 1009.9 |
| 20260506103003 | 21 | 191 | 1.6 | 4.8 | 0.00 | 0.00 | 0.00 | 52 | 1009.9 |
| 20260506102503 | 20 | 80 | 0.0 | 9.7 | 0.00 | 0.00 | 0.00 | 53 | 1009.7 |
| 20260506102004 | 20 | 170 | 6.4 | 12.9 | 0.00 | 0.00 | 0.00 | 53 | 1010.0 |
| 20260506101505 | 21 | 197 | 8.0 | 16.1 | 0.00 | 0.00 | 0.00 | 51 | 1010.1 |
| 20260506101003 | 21 | 123 | 6.4 | 9.7 | 0.00 | 0.00 | 0.00 | 51 | 1009.9 |
| 20260506100504 | 21 | 185 | 1.6 | 12.9 | 0.00 | 0.00 | 0.00 | 51 | 1010.1 |
| 20260506100005 | 21 | 188 | 8.0 | 11.3 | 0.00 | 0.00 | 0.00 | 50 | 1010.0 |
| 20260506095504 | 21 | 298 | 4.8 | 8.0 | 0.00 | 0.00 | 0.00 | 51 | 1009.9 |
| 20260506095003 | 21 | 196 | 4.8 | 9.7 | 0.00 | 0.00 | 0.00 | 52 | 1009.9 |
| 20260506094504 | 21 | 164 | 4.8 | 11.3 | 0.00 | 0.00 | 0.00 | 53 | 1009.8 |
| 20260506094002 | 21 | 156 | 4.8 | 11.3 | 0.00 | 0.00 | 0.00 | 54 | 1009.9 |
| 20260506093504 | 20 | 177 | 6.4 | 11.3 | 0.00 | 0.00 | 0.00 | 56 | 1009.8 |
| 20260506093003 | 20 | 275 | 1.6 | 9.7 | 0.00 | 0.00 | 0.00 | 56 | 1009.8 |
| 20260506092503 | 20 | 320 | 1.6 | 11.3 | 0.00 | 0.00 | 0.00 | 59 | 1009.8 |
| 20260506092004 | 19 | 46 | 1.6 | 9.7 | 0.00 | 0.00 | 0.00 | 61 | 1010.0 |
| 20260506091504 | 20 | 262 | 3.2 | 4.8 | 0.00 | 0.00 | 0.00 | 60 | 1010.0 |
| 20260506091002 | 19 | 152 | 1.6 | 3.2 | 0.00 | 0.00 | 0.00 | 60 | 1010.0 |
| 20260506090504 | 19 | 329 | 3.2 | 8.0 | 0.00 | 0.00 | 0.00 | 61 | 1009.8 |
| 20260506090004 | 19 | 206 | 3.2 | 9.7 | 0.00 | 0.00 | 0.00 | 61 | 1009.7 |
| 20260506085503 | 19 | 45 | 4.8 | 4.8 | 0.00 | 0.00 | 0.00 | 60 | 1009.9 |
| 20260506085003 | 20 | 25 | 1.6 | 8.0 | 0.00 | 0.00 | 0.00 | 60 | 1009.6 |
| 20260506084504 | 20 | 185 | 9.7 | 12.9 | 0.00 | 0.00 | 0.00 | 59 | 1009.6 |
| 20260506084003 | 20 | 262 | 3.2 | 4.8 | 0.00 | 0.00 | 0.00 | 60 | 1009.7 |
| 20260506083502 | 20 | 277 | 3.2 | 9.7 | 0.00 | 0.00 | 0.00 | 59 | 1009.7 |
| 20260506083003 | 20 | 194 | 4.8 | 8.0 | 0.00 | 0.00 | 0.00 | 59 | 1009.7 |
| 20260506082503 | 20 | 152 | 1.6 | 3.2 | 0.00 | 0.00 | 0.00 | 60 | 1009.8 |
| 20260506082005 | 20 | 43 | 1.6 | 4.8 | 0.00 | 0.00 | 0.00 | 60 | 1009.7 |
| 20260506081503 | 19 | 286 | 3.2 | 4.8 | 0.00 | 0.00 | 0.00 | 63 | 1009.8 |
| 20260506081002 | 20 | 299 | 3.2 | 9.7 | 0.00 | 0.00 | 0.00 | 61 | 1009.7 |
| 20260506080503 | 19 | 261 | 1.6 | 8.0 | 0.00 | 0.00 | 0.00 | 63 | 1009.8 |
| 20260506073502 | 19 | 302 | 8.0 | 9.7 | 0.00 | 0.00 | 0.00 | 64 | 1009.6 |
| 20260506073003 | 18 | 171 | 6.4 | 9.7 | 0.00 | 0.00 | 0.00 | 67 | 1009.4 |
| 20260506072503 | 18 | 301 | 1.6 | 4.8 | 0.00 | 0.00 | 0.00 | 68 | 1009.4 |
| 20260506072005 | 18 | 214 | 4.8 | 8.0 | 0.00 | 0.00 | 0.00 | 67 | 1009.4 |
| 20260506071503 | 17 | 140 | 0.0 | 3.2 | 0.00 | 0.00 | 0.00 | 69 | 1009.2 |
| 20260506071003 | 18 | 314 | 3.2 | 8.0 | 0.00 | 0.00 | 0.00 | 66 | 1009.3 |
| 20260506070504 | 18 | 80 | 3.2 | 4.8 | 0.00 | 0.00 | 0.00 | 66 | 1009.3 |
| 20260506062503 | 15 | 55 | 0.0 | 3.2 | 0.00 | 0.00 | 0.00 | 75 | 1009.3 |
| 20260506062005 | 15 | 199 | 4.8 | 4.8 | 0.00 | 0.00 | 0.00 | 75 | 1009.3 |
| 20260506061504 | 14 | 167 | 0.0 | 3.2 | 0.00 | 0.00 | 0.00 | 77 | 1009.6 |
| 20260506061005 | 13 | 145 | 0.0 | 3.2 | 0.00 | 0.00 | 0.00 | 79 | 1009.5 |
| 20260506060503 | 14 | 154 | 0.0 | 1.6 | 0.00 | 0.00 | 0.00 | 78 | 1009.4 |
| 20260506051004 | 13 | 132 | 0.0 | 1.6 | 0.00 | 0.00 | 0.00 | 82 | 1009.1 |
| 20260506050502 | 13 | 13 | 0.0 | 1.6 | 0.00 | 0.00 | 0.00 | 81 | 1009.0 |
| 20260506045003 | 12 | 44 | 0.0 | 0.0 | 0.00 | 0.00 | 0.00 | 84 | 1008.8 |
| 20260506044503 | 12 | 329 | 3.2 | 3.2 | 0.00 | 0.00 | 0.00 | 85 | 1008.8 |
| 20260506044004 | 12 | 172 | 1.6 | 1.6 | 0.00 | 0.00 | 0.00 | 86 | 1009.1 |
| 20260506043503 | 12 | 10 | 0.0 | 1.6 | 0.00 | 0.00 | 0.00 | 88 | 1008.9 |
| 20260506043003 | 11 | 88 | 0.0 | 1.6 | 0.00 | 0.00 | 0.00 | 90 | 1008.8 |
| 20260506042502 | 11 | 12 | 0.0 | 3.2 | 0.00 | 0.00 | 0.00 | 91 | 1008.5 |
| 20260506042002 | 11 | 359 | 0.0 | 1.6 | 0.00 | 0.00 | 0.00 | 93 | 1008.4 |
| 20260506041505 | 11 | 14 | 0.0 | 0.0 | 0.00 | 0.00 | 0.00 | 94 | 1008.7 |
| 20260506041004 | 10 | 39 | 0.0 | 0.0 | 0.00 | 0.00 | 0.00 | 94 | 1008.7 |
| 20260506040502 | 10 | 20 | 0.0 | 0.0 | 0.00 | 0.00 | 0.00 | 94 | 1008.9 |
| 20260506040005 | 10 | 20 | 0.0 | 0.0 | 0.00 | 0.00 | 0.00 | 94 | 1008.7 |
| 20260506035504 | 10 | 20 | 0.0 | 0.0 | 0.00 | 0.00 | 0.00 | 94 | 1008.8 |
| 20260506035003 | 10 | 20 | 0.0 | 0.0 | 0.00 | 0.00 | 0.00 | 94 | 1008.5 |
| 20260506034503 | 9 | 20 | 0.0 | 0.0 | 0.00 | 0.00 | 0.00 | 94 | 1008.5 |
| 20260506034004 | 9 | 20 | 0.0 | 0.0 | 0.00 | 0.00 | 0.00 | 93 | 1008.1 |
| 20260506033503 | 9 | 20 | 0.0 | 0.0 | 0.00 | 0.00 | 0.00 | 93 | 1008.1 |
| 20260506033003 | 9 | 20 | 0.0 | 0.0 | 0.00 | 0.00 | 0.00 | 92 | 1008.1 |
| 20260506032503 | 9 | 20 | 0.0 | 0.0 | 0.00 | 0.00 | 0.00 | 92 | 1008.1 |
| 20260506032002 | 9 | 20 | 0.0 | 0.0 | 0.00 | 0.00 | 0.00 | 92 | 1008.2 |
| 20260506031503 | 9 | 20 | 0.0 | 0.0 | 0.00 | 0.00 | 0.00 | 92 | 1008.1 |
| 20260506031004 | 10 | 20 | 0.0 | 0.0 | 0.00 | 0.00 | 0.00 | 91 | 1008.1 |
| 20260506030503 | 10 | 20 | 0.0 | 0.0 | 0.00 | 0.00 | 0.00 | 91 | 1008.2 |
| 20260506030003 | 10 | 20 | 0.0 | 0.0 | 0.00 | 0.00 | 0.00 | 91 | 1008.2 |
| 20260506025504 | 10 | 20 | 0.0 | 0.0 | 0.00 | 0.00 | 0.00 | 91 | 1008.3 |
| 20260506025004 | 10 | 20 | 0.0 | 0.0 | 0.00 | 0.00 | 0.00 | 91 | 1008.4 |
| 20260506024505 | 10 | 20 | 0.0 | 0.0 | 0.00 | 0.00 | 0.00 | 91 | 1008.6 |
| 20260506024003 | 10 | 20 | 0.0 | 0.0 | 0.00 | 0.00 | 0.00 | 91 | 1008.6 |
| 20260506023503 | 10 | 44 | 0.0 | 0.0 | 0.00 | 0.00 | 0.00 | 91 | 1008.6 |
| 20260506023005 | 10 | 20 | 0.0 | 0.0 | 0.00 | 0.00 | 0.00 | 92 | 1008.8 |
| 20260506022502 | 10 | 14 | 0.0 | 1.6 | 0.00 | 0.00 | 0.00 | 92 | 1008.9 |
| 20260506022003 | 10 | 10 | 0.0 | 1.6 | 0.00 | 0.00 | 0.00 | 92 | 1009.1 |
| 20260506021503 | 10 | 18 | 0.0 | 0.0 | 0.00 | 0.00 | 0.00 | 91 | 1008.7 |
| 20260506021004 | 10 | 18 | 0.0 | 0.0 | 0.00 | 0.00 | 0.00 | 91 | 1008.8 |
| 20260506020505 | 10 | 18 | 0.0 | 0.0 | 0.00 | 0.00 | 0.00 | 92 | 1008.8 |
| 20260506020003 | 10 | 18 | 0.0 | 0.0 | 0.00 | 0.00 | 0.00 | 92 | 1009.0 |
| 20260506015506 | 10 | 18 | 0.0 | 0.0 | 0.00 | 0.00 | 0.00 | 92 | 1008.9 |
| 20260506015005 | 10 | 19 | 0.0 | 0.0 | 0.00 | 0.00 | 0.00 | 92 | 1008.8 |
| 20260506014503 | 10 | 19 | 0.0 | 0.0 | 0.00 | 0.00 | 0.00 | 92 | 1008.6 |
| 20260506014004 | 9 | 24 | 0.0 | 0.0 | 0.00 | 0.00 | 0.00 | 91 | 1008.9 |
| 20260506013503 | 10 | 24 | 0.0 | 0.0 | 0.00 | 0.00 | 0.00 | 91 | 1008.8 |
| 20260506013003 | 10 | 24 | 0.0 | 0.0 | 0.00 | 0.00 | 0.00 | 91 | 1008.9 |
| 20260506012506 | 10 | 24 | 0.0 | 0.0 | 0.00 | 0.00 | 0.00 | 91 | 1008.7 |
| 20260506012003 | 10 | 24 | 0.0 | 0.0 | 0.00 | 0.00 | 0.00 | 91 | 1008.9 |
| 20260506011503 | 10 | 24 | 0.0 | 0.0 | 0.00 | 0.00 | 0.00 | 90 | 1008.8 |
| 20260506011005 | 10 | 24 | 0.0 | 0.0 | 0.00 | 0.00 | 0.00 | 90 | 1008.8 |
| 20260506010504 | 10 | 24 | 0.0 | 0.0 | 0.00 | 0.00 | 0.00 | 90 | 1008.8 |
| 20260506010003 | 10 | 24 | 0.0 | 0.0 | 0.00 | 0.00 | 0.00 | 90 | 1008.8 |
| 20260506005503 | 10 | 24 | 0.0 | 0.0 | 0.00 | 0.00 | 0.00 | 89 | 1008.8 |
| 20260506005003 | 10 | 24 | 0.0 | 0.0 | 0.00 | 0.00 | 0.00 | 89 | 1008.8 |
| 20260506004503 | 10 | 24 | 0.0 | 0.0 | 0.00 | 0.00 | 0.00 | 89 | 1008.9 |
| 20260506004004 | 10 | 24 | 0.0 | 0.0 | 0.00 | 0.00 | 0.00 | 89 | 1008.9 |
| 20260506003502 | 10 | 24 | 0.0 | 0.0 | 0.00 | 0.00 | 0.00 | 88 | 1008.8 |
| 20260506003002 | 10 | 24 | 0.0 | 0.0 | 0.00 | 0.00 | 0.00 | 88 | 1008.7 |
| 20260506002502 | 11 | 24 | 0.0 | 0.0 | 0.00 | 0.00 | 0.00 | 88 | 1008.6 |
| 20260506002003 | 10 | 24 | 0.0 | 0.0 | 0.00 | 0.00 | 0.00 | 89 | 1008.7 |
| 20260506001504 | 10 | 24 | 0.0 | 0.0 | 0.00 | 0.00 | 0.00 | 89 | 1008.8 |
| 20260506001004 | 10 | 24 | 0.0 | 0.0 | 0.00 | 0.00 | 0.00 | 88 | 1008.8 |
| 20260506000503 | 11 | 24 | 0.0 | 0.0 | 0.00 | 0.00 | 0.00 | 88 | 1008.8 |
| 20260506000003 | 11 | 24 | 0.0 | 0.0 | 0.00 | 0.00 | 0.00 | 87 | 1008.8 |
| 20260505235503 | 11 | 24 | 0.0 | 0.0 | 0.00 | 0.00 | 0.00 | 86 | 1008.7 |
| 20260505235003 | 11 | 24 | 0.0 | 0.0 | 0.00 | 0.00 | 0.00 | 86 | 1008.7 |
| 20260505234505 | 11 | 24 | 0.0 | 0.0 | 0.00 | 0.00 | 0.00 | 86 | 1008.6 |
| 20260505234003 | 11 | 23 | 0.0 | 0.0 | 0.00 | 0.00 | 0.00 | 86 | 1008.8 |
| 20260505233503 | 11 | 24 | 0.0 | 0.0 | 0.00 | 0.00 | 0.00 | 85 | 1009.0 |
| 20260505233003 | 11 | 24 | 0.0 | 0.0 | 0.00 | 0.00 | 0.00 | 84 | 1008.6 |
| 20260505232503 | 12 | 24 | 0.0 | 0.0 | 0.00 | 0.00 | 0.00 | 83 | 1008.9 |
| 20260505232003 | 12 | 24 | 0.0 | 0.0 | 0.00 | 0.00 | 0.00 | 82 | 1008.8 |
| 20260505231504 | 12 | 55 | 0.0 | 0.0 | 0.00 | 0.00 | 0.00 | 81 | 1008.8 |
| 20260505231003 | 12 | 55 | 0.0 | 0.0 | 0.00 | 0.00 | 0.00 | 80 | 1008.8 |
| 20260505230502 | 13 | 55 | 0.0 | 0.0 | 0.00 | 0.00 | 0.00 | 78 | 1008.7 |
| 20260505230004 | 13 | 56 | 0.0 | 0.0 | 0.00 | 0.00 | 0.00 | 78 | 1008.7 |
| 20260505225502 | 13 | 42 | 0.0 | 3.2 | 0.00 | 0.00 | 0.00 | 81 | 1008.9 |